createdAt,value
2019-03-16T00:01:04.312Z,2.00
2019-03-16T00:03:34.862Z,2.10
2019-03-16T00:06:05.342Z,2.20
2019-03-16T00:08:44.012Z,2.20
2019-03-16T00:11:16.657Z,2.20
2019-03-16T00:13:47.128Z,2.20
2019-03-16T00:16:17.551Z,2.20
2019-03-16T00:18:48.040Z,2.20
2019-03-16T00:21:18.491Z,2.00
2019-03-16T00:23:48.963Z,1.90
2019-03-16T00:26:19.341Z,1.90
2019-03-16T00:28:49.824Z,1.90
2019-03-16T00:31:20.289Z,2.00
2019-03-16T00:33:50.764Z,2.10
2019-03-16T00:36:21.201Z,2.10
2019-03-16T00:38:52.057Z,2.10
2019-03-16T00:41:22.508Z,2.10
2019-03-16T00:43:54.466Z,2.10
2019-03-16T00:46:24.890Z,2.10
2019-03-16T00:48:55.405Z,2.30
2019-03-16T00:51:25.865Z,2.30
2019-03-16T00:53:56.407Z,2.30
2019-03-16T00:56:26.877Z,2.40
2019-03-16T00:58:57.746Z,2.50
2019-03-16T01:01:28.241Z,2.50
2019-03-16T01:03:58.668Z,2.50
2019-03-16T01:06:29.341Z,2.50
2019-03-16T01:08:59.835Z,2.50
2019-03-16T01:11:30.352Z,2.50
2019-03-16T01:14:00.748Z,2.40
2019-03-16T01:16:31.208Z,2.40
2019-03-16T01:19:01.675Z,2.40
2019-03-16T01:21:32.192Z,2.30
2019-03-16T01:24:02.649Z,2.10
2019-03-16T01:26:33.086Z,2.10
2019-03-16T01:29:03.496Z,2.00
2019-03-16T01:31:34.077Z,1.90
2019-03-16T01:34:04.490Z,1.90
2019-03-16T01:36:34.945Z,2.00
2019-03-16T01:39:07.676Z,1.90
2019-03-16T01:41:38.119Z,1.90
2019-03-16T01:44:08.601Z,1.90
2019-03-16T01:46:39.122Z,2.00
2019-03-16T01:49:09.518Z,2.10
2019-03-16T01:51:40.051Z,2.20
2019-03-16T01:54:10.561Z,2.20
2019-03-16T01:56:41.015Z,2.20
2019-03-16T01:59:12.896Z,2.10
2019-03-16T02:01:43.451Z,2.20
2019-03-16T02:04:13.825Z,2.30
2019-03-16T02:06:44.353Z,2.30
2019-03-16T02:09:14.789Z,2.30
2019-03-16T02:11:45.357Z,2.30
2019-03-16T02:14:15.788Z,2.30
2019-03-16T02:16:46.206Z,2.30
2019-03-16T02:19:16.714Z,2.30
2019-03-16T02:21:47.344Z,2.20
2019-03-16T02:24:19.453Z,2.10
2019-03-16T02:26:50.313Z,2.00
2019-03-16T02:29:21.596Z,2.10
2019-03-16T02:31:52.022Z,2.00
2019-03-16T02:34:23.586Z,2.00
2019-03-16T02:36:54.360Z,2.00
2019-03-16T02:39:24.887Z,1.90
2019-03-16T02:41:55.356Z,1.90
2019-03-16T02:44:25.950Z,1.90
2019-03-16T02:46:56.428Z,1.80
2019-03-16T02:49:26.958Z,1.90
2019-03-16T02:51:57.604Z,2.00
2019-03-16T02:54:28.016Z,2.10
2019-03-16T02:56:58.457Z,2.10
2019-03-16T02:59:28.951Z,2.20
2019-03-16T03:01:59.521Z,2.20
2019-03-16T03:04:30.032Z,2.20
2019-03-16T03:07:00.681Z,2.20
2019-03-16T03:09:31.149Z,2.20
2019-03-16T03:12:02.120Z,2.20
2019-03-16T03:14:34.924Z,2.10
2019-03-16T03:17:05.763Z,2.00
2019-03-16T03:19:37.436Z,2.00
2019-03-16T03:22:09.537Z,2.00
2019-03-16T03:24:43.898Z,2.00
2019-03-16T03:27:12.075Z,2.10
2019-03-16T03:29:42.499Z,2.10
2019-03-16T03:32:12.947Z,2.20
2019-03-16T03:34:43.413Z,2.20
2019-03-16T03:37:16.324Z,2.20
2019-03-16T03:39:46.761Z,2.30
2019-03-16T03:42:17.304Z,2.30
2019-03-16T03:44:47.818Z,2.30
2019-03-16T03:47:18.367Z,2.20
2019-03-16T03:50:15.720Z,2.30
2019-03-16T03:52:52.748Z,2.20
2019-03-16T03:55:24.111Z,2.20
2019-03-16T03:57:54.673Z,2.20
2019-03-16T04:00:25.128Z,2.10
2019-03-16T04:02:55.621Z,2.10
2019-03-16T04:05:26.040Z,2.00
2019-03-16T04:07:56.554Z,2.00
2019-03-16T04:10:27.116Z,1.90
2019-03-16T04:12:57.611Z,1.90
2019-03-16T04:15:32.131Z,1.90
2019-03-16T04:18:02.582Z,1.90
2019-03-16T04:20:33.050Z,1.90
2019-03-16T04:23:03.567Z,2.00
2019-03-16T04:25:42.450Z,2.00
2019-03-16T04:28:16.113Z,2.00
2019-03-16T04:33:14.085Z,1.90
2019-03-16T04:35:44.491Z,1.80
2019-03-16T04:38:14.976Z,1.90
2019-03-16T04:40:46.555Z,1.80
2019-03-16T04:43:16.965Z,1.80
2019-03-16T04:45:47.533Z,1.80
2019-03-16T04:48:16.103Z,1.90
2019-03-16T04:50:47.095Z,1.90
2019-03-16T04:53:17.527Z,2.10
2019-03-16T04:55:47.908Z,2.20
2019-03-16T04:58:18.373Z,2.30
2019-03-16T05:00:48.921Z,2.30
2019-03-16T05:03:19.525Z,2.30
2019-03-16T05:05:50.756Z,2.20
2019-03-16T05:08:21.427Z,2.20
2019-03-16T05:10:51.866Z,2.30
2019-03-16T05:13:25.464Z,2.40
2019-03-16T05:15:55.930Z,2.70
2019-03-16T05:21:08.268Z,4.00
2019-03-16T05:23:38.773Z,4.80
2019-03-16T05:26:09.266Z,5.70
2019-03-16T05:28:39.696Z,6.00
2019-03-16T05:31:12.166Z,6.40
2019-03-16T05:33:45.194Z,5.60
2019-03-16T05:36:16.859Z,5.30
2019-03-16T05:38:47.326Z,4.90
2019-03-16T05:41:17.966Z,5.00
2019-03-16T05:43:48.469Z,5.20
2019-03-16T05:46:18.972Z,5.40
2019-03-16T05:48:49.443Z,5.10
2019-03-16T05:51:19.830Z,5.20
2019-03-16T05:53:50.375Z,5.30
2019-03-16T05:56:21.033Z,5.20
2019-03-16T05:58:51.533Z,5.40
2019-03-16T06:01:22.091Z,5.60
2019-03-16T06:03:52.543Z,5.80
2019-03-16T06:06:22.997Z,5.80
2019-03-16T06:08:53.526Z,5.80
2019-03-16T06:11:23.970Z,6.00
2019-03-16T06:13:56.131Z,6.10
2019-03-16T06:16:28.628Z,6.20
2019-03-16T06:18:59.908Z,6.50
2019-03-16T06:21:31.413Z,6.60
2019-03-16T06:24:01.937Z,6.90
2019-03-16T06:26:32.537Z,7.00
2019-03-16T06:29:02.979Z,7.00
2019-03-16T06:31:33.430Z,7.10
2019-03-16T06:34:03.859Z,7.00
2019-03-16T06:36:35.925Z,6.90
2019-03-16T06:39:07.667Z,6.90
2019-03-16T06:41:38.271Z,7.10
2019-03-16T06:44:11.227Z,7.00
2019-03-16T06:46:49.435Z,7.20
2019-03-16T06:52:48.351Z,7.50
2019-03-16T06:55:18.988Z,7.50
2019-03-16T06:57:58.445Z,7.70
2019-03-16T07:03:29.510Z,7.90
2019-03-16T07:06:01.123Z,7.90
2019-03-16T07:08:35.993Z,8.00
2019-03-16T07:11:06.663Z,8.00
2019-03-16T07:13:39.065Z,8.20
2019-03-16T07:16:12.241Z,8.20
2019-03-16T07:18:58.653Z,8.30
2019-03-16T07:24:30.311Z,8.40
2019-03-16T07:30:03.522Z,8.90
2019-03-16T07:32:56.373Z,9.10
2019-03-16T07:35:34.418Z,8.90
2019-03-16T07:38:13.584Z,9.10
2019-03-16T07:40:50.000Z,8.90
2019-03-16T07:43:26.228Z,9.00
2019-03-16T07:46:01.138Z,9.30
2019-03-16T07:48:34.476Z,9.30
2019-03-16T07:51:37.504Z,9.30
2019-03-16T07:54:20.620Z,9.50
2019-03-16T07:56:49.206Z,9.60
2019-03-16T07:59:19.897Z,9.80
2019-03-16T08:01:50.594Z,9.90
2019-03-16T08:08:04.305Z,9.90
2019-03-16T08:13:42.496Z,9.90
2019-03-16T08:16:14.609Z,10.10
2019-03-16T08:18:45.281Z,10.20
2019-03-16T08:21:18.849Z,10.40
2019-03-16T08:23:58.047Z,10.60
2019-03-16T08:26:30.983Z,10.60
2019-03-16T08:29:03.375Z,10.60
2019-03-16T08:31:35.404Z,10.60
2019-03-16T08:34:06.033Z,10.50
2019-03-16T08:36:38.337Z,10.90
2019-03-16T08:39:08.950Z,10.90
2019-03-16T08:41:39.434Z,10.60
2019-03-16T08:44:10.739Z,10.90
2019-03-16T08:46:41.185Z,11.10
2019-03-16T08:49:11.656Z,11.00
2019-03-16T08:51:42.073Z,11.10
2019-03-16T08:54:12.453Z,11.10
2019-03-16T08:56:42.947Z,11.10
2019-03-16T08:59:14.542Z,11.10
2019-03-16T09:01:46.158Z,11.30
2019-03-16T09:04:16.559Z,11.40
2019-03-16T09:06:47.167Z,11.30
2019-03-16T09:09:20.560Z,11.30
2019-03-16T09:11:53.394Z,11.10
2019-03-16T09:14:23.769Z,11.30
2019-03-16T09:17:00.115Z,11.20
2019-03-16T09:19:32.453Z,11.10
2019-03-16T09:22:02.948Z,11.00
2019-03-16T09:24:33.390Z,11.00
2019-03-16T09:27:04.037Z,10.80
2019-03-16T09:29:36.128Z,10.60
2019-03-16T09:32:06.593Z,10.60
2019-03-16T09:34:37.118Z,10.90
2019-03-16T09:37:07.537Z,11.00
2019-03-16T09:39:38.003Z,10.70
2019-03-16T09:42:10.280Z,10.60
2019-03-16T09:44:42.415Z,10.90
2019-03-16T09:47:12.972Z,10.70
2019-03-16T09:49:43.474Z,10.70
2019-03-16T09:52:15.338Z,10.80
2019-03-16T09:54:45.862Z,11.10
2019-03-16T09:57:16.345Z,11.10
2019-03-16T09:59:46.853Z,11.10
2019-03-16T10:02:17.299Z,11.00
2019-03-16T10:04:47.757Z,11.10
2019-03-16T10:07:20.853Z,11.00
2019-03-16T10:09:52.050Z,10.80
2019-03-16T10:12:25.764Z,10.90
2019-03-16T10:14:56.295Z,11.00
2019-03-16T10:17:27.175Z,11.30
2019-03-16T10:19:59.712Z,11.50
2019-03-16T10:22:30.832Z,11.30
2019-03-16T10:25:06.144Z,11.20
2019-03-16T10:27:35.819Z,11.20
2019-03-16T10:30:13.523Z,11.30
2019-03-16T10:32:44.228Z,11.50
2019-03-16T10:35:15.160Z,11.60
2019-03-16T10:37:47.107Z,11.80
2019-03-16T10:40:17.691Z,11.70
2019-03-16T10:42:48.331Z,11.70
2019-03-16T10:45:19.020Z,11.70
2019-03-16T10:47:49.749Z,11.60
2019-03-16T10:50:21.114Z,11.60
2019-03-16T10:52:54.529Z,11.70
2019-03-16T10:55:25.116Z,11.70
2019-03-16T10:57:55.761Z,11.60
2019-03-16T11:00:26.397Z,11.60
2019-03-16T11:02:58.277Z,11.70
2019-03-16T11:05:30.990Z,11.70
2019-03-16T11:08:02.622Z,11.90
2019-03-16T11:10:33.222Z,12.00
2019-03-16T11:13:03.645Z,11.80
2019-03-16T11:15:34.164Z,11.80
2019-03-16T11:18:04.770Z,12.00
2019-03-16T11:20:36.971Z,12.00
2019-03-16T11:23:08.337Z,12.00
2019-03-16T11:25:38.776Z,12.10
2019-03-16T11:28:11.844Z,12.20
2019-03-16T11:30:45.699Z,12.30
2019-03-16T11:33:16.447Z,12.20
2019-03-16T11:35:48.570Z,12.10
2019-03-16T11:38:20.030Z,12.10
2019-03-16T11:40:50.458Z,12.20
2019-03-16T11:43:21.160Z,12.30
2019-03-16T11:45:51.916Z,12.00
2019-03-16T11:48:22.502Z,12.10
2019-03-16T11:50:52.997Z,12.40
2019-03-16T11:53:23.541Z,12.50
2019-03-16T11:55:54.570Z,12.50
2019-03-16T11:58:25.022Z,12.50
2019-03-16T12:00:55.481Z,12.60
2019-03-16T12:03:25.928Z,12.70
2019-03-16T12:05:59.035Z,12.80
2019-03-16T12:08:29.561Z,12.70
2019-03-16T12:11:00.133Z,12.70
2019-03-16T12:13:30.647Z,12.60
2019-03-16T12:16:02.673Z,12.50
2019-03-16T12:18:33.417Z,12.30
2019-03-16T12:21:04.160Z,12.20
2019-03-16T12:23:34.767Z,12.10
2019-03-16T12:26:05.296Z,12.10
2019-03-16T12:28:35.908Z,12.00
2019-03-16T12:31:07.018Z,12.00
2019-03-16T12:33:37.633Z,12.10
2019-03-16T12:36:08.238Z,12.00
2019-03-16T12:38:42.511Z,12.00
2019-03-16T12:41:13.043Z,12.10
2019-03-16T12:43:55.490Z,12.20
2019-03-16T12:46:26.021Z,12.10
2019-03-16T12:48:56.760Z,12.10
2019-03-16T12:51:27.280Z,12.10
2019-03-16T12:53:58.031Z,12.20
2019-03-16T12:59:11.903Z,12.10
2019-03-16T13:01:44.071Z,12.00
2019-03-16T13:04:18.712Z,12.00
2019-03-16T13:06:51.237Z,12.10
2019-03-16T13:09:21.711Z,12.00
2019-03-16T13:11:53.243Z,12.10
2019-03-16T13:14:23.752Z,12.00
2019-03-16T13:16:57.160Z,12.00
2019-03-16T13:19:27.727Z,12.10
2019-03-16T13:22:00.045Z,12.20
2019-03-16T13:24:33.389Z,12.10
2019-03-16T13:27:06.046Z,12.10
2019-03-16T13:29:36.576Z,12.10
2019-03-16T13:32:07.112Z,12.10
2019-03-16T13:34:38.008Z,12.20
2019-03-16T13:37:08.652Z,12.10
2019-03-16T13:39:39.192Z,12.10
2019-03-16T13:42:15.589Z,12.10
2019-03-16T13:44:46.796Z,12.10
2019-03-16T13:47:26.468Z,12.30
2019-03-16T13:50:05.301Z,12.40
2019-03-16T13:52:37.333Z,12.30
2019-03-16T13:55:08.407Z,12.20
2019-03-16T13:57:38.889Z,12.10
2019-03-16T14:00:13.903Z,12.00
2019-03-16T14:02:44.441Z,11.90
2019-03-16T14:05:15.212Z,11.90
2019-03-16T14:07:46.032Z,11.90
2019-03-16T14:10:25.467Z,11.80
2019-03-16T14:12:55.932Z,11.70
2019-03-16T14:15:28.845Z,11.70
2019-03-16T14:17:59.311Z,11.60
2019-03-16T14:20:30.555Z,11.60
2019-03-16T14:23:01.360Z,11.50
2019-03-16T14:25:31.904Z,11.60
2019-03-16T14:28:04.224Z,11.50
2019-03-16T14:30:40.953Z,11.50
2019-03-16T14:33:09.457Z,11.50
2019-03-16T14:35:39.914Z,11.30
2019-03-16T14:38:12.074Z,11.20
2019-03-16T14:40:45.232Z,11.00
2019-03-16T14:43:15.686Z,11.00
2019-03-16T14:45:49.001Z,10.90
2019-03-16T14:48:20.319Z,10.80
2019-03-16T14:50:50.935Z,10.80
2019-03-16T14:53:21.631Z,10.80
2019-03-16T14:55:56.355Z,10.80
2019-03-16T14:58:27.999Z,10.70
2019-03-16T15:00:58.591Z,10.70
2019-03-16T15:03:29.224Z,10.70
2019-03-16T15:06:03.750Z,10.60
2019-03-16T15:09:06.188Z,10.40
2019-03-16T15:11:23.096Z,10.30
2019-03-16T15:14:01.908Z,10.20
2019-03-16T15:16:32.720Z,10.20
2019-03-16T15:19:03.775Z,10.20
2019-03-16T15:21:34.478Z,10.20
2019-03-16T15:24:04.979Z,10.20
2019-03-16T15:26:43.754Z,10.20
2019-03-16T15:29:11.182Z,10.10
2019-03-16T15:31:41.968Z,10.10
2019-03-16T15:43:47.332Z,10.20
2019-03-16T15:46:19.560Z,10.20
2019-03-16T15:49:13.977Z,10.20
2019-03-16T15:51:47.194Z,10.20
2019-03-16T15:54:17.844Z,10.20
2019-03-16T15:57:08.517Z,10.20
2019-03-16T15:59:40.329Z,10.10
2019-03-16T16:02:10.812Z,10.10
2019-03-16T16:07:55.152Z,10.10
2019-03-16T16:10:27.376Z,10.10
2019-03-16T16:12:59.387Z,10.10
2019-03-16T16:15:29.902Z,10.10
2019-03-16T16:18:02.536Z,10.10
2019-03-16T16:20:37.266Z,10.10
2019-03-16T16:23:11.244Z,10.10
2019-03-16T16:25:42.102Z,10.10
2019-03-16T16:28:33.045Z,10.10
2019-03-16T16:31:15.809Z,10.10
2019-03-16T16:33:38.101Z,10.10
2019-03-16T16:36:08.851Z,10.10
2019-03-16T16:38:39.343Z,10.00
2019-03-16T16:41:09.821Z,10.00
2019-03-16T16:43:41.878Z,10.00
2019-03-16T16:46:12.354Z,10.00
2019-03-16T16:48:42.767Z,10.00
2019-03-16T16:51:14.194Z,9.90
2019-03-16T16:53:44.785Z,10.00
2019-03-16T16:56:15.192Z,10.00
2019-03-16T16:58:45.886Z,10.00
2019-03-16T17:01:28.514Z,10.00
2019-03-16T17:04:03.251Z,10.00
2019-03-16T17:06:43.803Z,10.10
2019-03-16T17:09:15.943Z,10.10
2019-03-16T17:11:47.812Z,10.10
2019-03-16T17:17:08.623Z,10.10
2019-03-16T17:19:39.064Z,9.90
2019-03-16T17:22:14.719Z,9.80
2019-03-16T17:25:40.607Z,9.50
2019-03-16T17:27:27.190Z,9.20
2019-03-16T17:32:52.292Z,9.00
2019-03-16T17:35:22.820Z,8.80
2019-03-16T17:37:53.271Z,8.60
2019-03-16T17:40:23.987Z,8.30
2019-03-16T17:42:54.827Z,8.10
2019-03-16T17:45:25.326Z,7.90
2019-03-16T17:47:55.842Z,7.70
2019-03-16T17:50:27.604Z,7.30
2019-03-16T17:52:59.700Z,7.20
2019-03-16T17:55:32.868Z,7.00
2019-03-16T17:58:16.627Z,6.80
2019-03-16T18:00:53.353Z,6.80
2019-03-16T18:03:29.347Z,6.60
2019-03-16T18:06:02.474Z,6.50
2019-03-16T18:11:52.629Z,6.40
2019-03-16T18:14:20.032Z,6.40
2019-03-16T18:16:55.185Z,6.40
2019-03-16T18:19:32.743Z,6.40
2019-03-16T18:22:08.478Z,6.30
2019-03-16T18:24:39.184Z,6.40
2019-03-16T18:27:09.889Z,6.30
2019-03-16T18:29:43.245Z,6.30
2019-03-16T18:32:16.971Z,6.30
2019-03-16T18:34:48.998Z,6.30
2019-03-16T18:37:24.095Z,6.20
2019-03-16T18:39:57.200Z,6.20
2019-03-16T18:42:27.954Z,6.10
2019-03-16T18:44:59.171Z,6.10
2019-03-16T18:47:33.136Z,6.20
2019-03-16T18:50:07.658Z,6.20
2019-03-16T18:52:38.599Z,6.10
2019-03-16T18:55:11.611Z,6.10
2019-03-16T18:57:46.618Z,6.10
2019-03-16T19:00:34.743Z,6.00
2019-03-16T19:03:06.086Z,6.00
2019-03-16T19:05:40.615Z,6.00
2019-03-16T19:08:37.747Z,5.90
2019-03-16T19:11:21.467Z,5.90
2019-03-16T19:13:55.159Z,5.90
2019-03-16T19:16:27.411Z,5.80
2019-03-16T19:19:00.933Z,5.90
2019-03-16T19:21:31.944Z,5.80
2019-03-16T19:24:03.386Z,5.80
2019-03-16T19:26:34.150Z,5.70
2019-03-16T19:29:06.247Z,5.70
2019-03-16T19:35:20.216Z,5.70
2019-03-16T19:41:21.783Z,5.60
2019-03-16T19:49:32.276Z,5.50
2019-03-16T19:54:35.893Z,5.50
2019-03-16T19:57:16.420Z,5.50
2019-03-16T19:59:47.291Z,5.50
2019-03-16T20:02:18.822Z,5.50
2019-03-16T20:04:50.412Z,5.60
2019-03-16T20:07:23.151Z,5.60
2019-03-16T20:09:54.340Z,5.60
2019-03-16T20:12:27.494Z,5.70
2019-03-16T20:15:00.886Z,5.70
2019-03-16T20:17:33.151Z,5.70
2019-03-16T20:20:08.544Z,5.70
2019-03-16T20:22:42.145Z,5.70
2019-03-16T20:25:17.360Z,5.70
2019-03-16T20:27:55.196Z,5.80
2019-03-16T20:30:27.201Z,5.80
2019-03-16T20:33:04.329Z,5.80
2019-03-16T20:35:38.600Z,5.80
2019-03-16T20:38:10.057Z,5.70
2019-03-16T20:40:40.746Z,5.90
2019-03-16T20:43:11.197Z,6.30
2019-03-16T20:45:41.982Z,6.10
2019-03-16T20:48:29.614Z,6.00
2019-03-16T20:51:04.403Z,5.90
2019-03-16T20:53:35.489Z,6.00
2019-03-16T20:56:06.018Z,5.90
2019-03-16T20:58:41.670Z,5.90
2019-03-16T21:01:18.290Z,6.00
2019-03-16T21:03:48.898Z,5.90
2019-03-16T21:06:25.451Z,5.90
2019-03-16T21:09:03.124Z,5.90
2019-03-16T21:11:29.632Z,5.90
2019-03-16T21:14:09.237Z,5.90
2019-03-16T21:16:40.878Z,5.80
2019-03-16T21:19:11.400Z,5.70
2019-03-16T21:21:42.079Z,5.70
2019-03-16T21:24:12.630Z,5.60
2019-03-16T21:26:51.851Z,5.60
2019-03-16T21:29:19.327Z,5.60
2019-03-16T21:31:49.877Z,5.60
2019-03-16T21:34:22.971Z,5.60
2019-03-16T21:36:57.719Z,5.60
2019-03-16T21:39:28.356Z,5.60
2019-03-16T21:41:58.882Z,5.60
2019-03-16T21:44:29.565Z,5.60
2019-03-16T21:47:01.176Z,5.60
2019-03-16T21:49:32.473Z,5.60
2019-03-16T21:52:03.070Z,5.60
2019-03-16T21:54:33.443Z,5.60
2019-03-16T21:57:05.509Z,5.60
2019-03-16T21:59:36.070Z,5.60
2019-03-16T22:02:06.659Z,5.60
2019-03-16T22:04:37.215Z,5.60
2019-03-16T22:07:07.664Z,5.60
2019-03-16T22:09:38.115Z,5.60
2019-03-16T22:12:08.640Z,5.60
2019-03-16T22:14:39.123Z,5.60
2019-03-16T22:17:09.681Z,5.60
2019-03-16T22:19:40.171Z,5.60
2019-03-16T22:22:10.622Z,5.60
2019-03-16T22:24:41.077Z,5.60
2019-03-16T22:27:11.558Z,5.60
2019-03-16T22:29:42.601Z,5.60
2019-03-16T22:32:13.064Z,5.60
2019-03-16T22:34:46.118Z,5.70
2019-03-16T22:37:16.656Z,5.70
2019-03-16T22:39:47.135Z,5.70
2019-03-16T22:42:17.607Z,5.70
2019-03-16T22:44:49.716Z,5.60
2019-03-16T22:47:20.371Z,5.60
2019-03-16T22:49:51.284Z,5.70
2019-03-16T22:52:21.761Z,5.60
2019-03-16T22:54:52.309Z,5.70
2019-03-16T22:57:22.890Z,5.60
2019-03-16T22:59:53.390Z,5.60
2019-03-16T23:02:23.884Z,5.60
2019-03-16T23:04:54.387Z,5.60
2019-03-16T23:07:24.873Z,5.60
2019-03-16T23:09:55.405Z,5.60
2019-03-16T23:12:27.173Z,5.60
2019-03-16T23:14:57.717Z,5.60
2019-03-16T23:17:29.187Z,5.70
2019-03-16T23:19:59.751Z,5.60
2019-03-16T23:22:30.181Z,5.60
2019-03-16T23:25:00.652Z,5.60
2019-03-16T23:27:31.125Z,5.50
2019-03-16T23:30:01.763Z,5.50
2019-03-16T23:32:33.256Z,5.50
2019-03-16T23:35:03.957Z,5.40
2019-03-16T23:37:34.382Z,5.30
2019-03-16T23:40:06.653Z,5.20
2019-03-16T23:42:37.074Z,5.10
2019-03-16T23:45:14.815Z,5.10
2019-03-16T23:47:45.295Z,5.00
2019-03-16T23:50:15.822Z,4.90
2019-03-16T23:52:46.267Z,4.90
2019-03-16T23:55:16.789Z,4.90
2019-03-16T23:57:47.194Z,4.80
